< < Back
Terminal Aerodrome Forecast


Current Version              Previous Versions:   1  2  3  4  5  6  7  8  9  

Terminal Aerodrome Forecast

077
FTUS42 KMLB 241725
TAFMCO
TAF
KMCO 241725Z 2418/2518 11005KT P6SM SCT035
     FM241900 11009KT P6SM VCTS SCT045CB SCT250
     FM242300 12010KT P6SM SCT050 BKN250
     FM250200 13004KT P6SM SCT250=



Latest METAR

405
SAUS70 KWBC 250400 RRJ
MTRMCO
METAR KMCO 250353Z 19004KT 10SM FEW250 24/21 A3008 RMK AO2 SLP185
T02440211


USA.gov is the U.S. government's official web portal to all federal, state and local government web resources and services.